createdAt,value
2018-11-03T00:00:05.115Z,53.48
2018-11-03T00:01:05.924Z,53.45
2018-11-03T00:02:05.026Z,53.45
2018-11-03T00:03:05.355Z,53.45
2018-11-03T00:04:05.016Z,53.46
2018-11-03T00:05:04.956Z,53.5
2018-11-03T00:06:05.278Z,53.5
2018-11-03T00:07:05.062Z,53.46
2018-11-03T00:08:05.328Z,53.45
2018-11-03T00:09:05.064Z,53.48
2018-11-03T00:10:05.307Z,53.48
2018-11-03T00:11:04.972Z,53.51
2018-11-03T00:12:05.152Z,53.49
2018-11-03T00:13:05.000Z,53.48
2018-11-03T00:14:05.261Z,53.52
2018-11-03T00:15:05.394Z,53.52
2018-11-03T00:16:07.199Z,53.56
2018-11-03T00:17:05.377Z,53.53
2018-11-03T00:18:05.156Z,53.52
2018-11-03T00:19:05.052Z,53.55
2018-11-03T00:20:05.421Z,53.52
2018-11-03T00:21:05.153Z,53.5
2018-11-03T00:22:05.428Z,53.52
2018-11-03T00:23:04.919Z,53.48
2018-11-03T00:24:05.374Z,53.52
2018-11-03T00:25:05.246Z,53.58
2018-11-03T00:26:07.679Z,53.6
2018-11-03T00:27:05.679Z,53.57
2018-11-03T00:28:05.013Z,53.53
2018-11-03T00:29:05.076Z,53.52
2018-11-03T00:30:05.411Z,53.58
2018-11-03T00:31:05.166Z,53.59
2018-11-03T00:32:05.382Z,53.56
2018-11-03T00:33:04.914Z,53.57
2018-11-03T00:34:05.249Z,53.54
2018-11-03T00:35:05.039Z,53.59
2018-11-03T00:36:05.091Z,53.56
2018-11-03T00:37:05.331Z,53.61
2018-11-03T00:38:04.959Z,53.62
2018-11-03T00:39:05.040Z,53.53
2018-11-03T00:40:05.477Z,53.54
2018-11-03T00:41:05.253Z,53.57
2018-11-03T00:42:05.064Z,53.55
2018-11-03T00:43:05.224Z,53.54
2018-11-03T00:44:04.892Z,53.51
2018-11-03T00:45:05.180Z,53.61
2018-11-03T00:46:05.151Z,53.61
2018-11-03T00:47:04.964Z,53.58
2018-11-03T00:48:05.983Z,53.58
2018-11-03T00:49:05.233Z,53.58
2018-11-03T00:50:05.743Z,53.58
2018-11-03T00:51:04.888Z,53.64
2018-11-03T00:52:05.355Z,53.64
2018-11-03T00:53:05.512Z,53.56
2018-11-03T00:54:05.574Z,53.6
2018-11-03T00:55:05.111Z,53.57
2018-11-03T00:56:07.386Z,53.58
2018-11-03T00:57:05.033Z,53.53
2018-11-03T00:58:05.313Z,53.61
2018-11-03T00:59:04.974Z,53.57
2018-11-03T01:00:05.016Z,53.54
2018-11-03T01:01:05.133Z,53.57
2018-11-03T01:02:05.348Z,53.6
2018-11-03T01:03:05.212Z,53.59
2018-11-03T01:04:05.261Z,53.59
2018-11-03T01:05:05.086Z,53.64
2018-11-03T01:06:07.275Z,53.57
2018-11-03T01:07:05.238Z,53.56
2018-11-03T01:08:05.225Z,53.6
2018-11-03T01:09:05.448Z,53.58
2018-11-03T01:10:05.210Z,53.57
2018-11-03T01:11:05.148Z,53.54
2018-11-03T01:12:05.272Z,53.6
2018-11-03T01:13:05.327Z,53.59
2018-11-03T01:14:05.112Z,53.6
2018-11-03T01:15:05.036Z,53.6
2018-11-03T01:16:05.091Z,53.6
2018-11-03T01:17:05.056Z,53.61
2018-11-03T01:18:05.445Z,53.61
2018-11-03T01:19:05.424Z,53.59
2018-11-03T01:20:05.507Z,53.61
2018-11-03T01:21:05.055Z,53.64
2018-11-03T01:22:05.009Z,53.59
2018-11-03T01:23:05.126Z,53.62
2018-11-03T01:24:05.409Z,53.57
2018-11-03T01:25:05.178Z,53.61
2018-11-03T01:26:04.865Z,53.6
2018-11-03T01:27:05.210Z,53.62
2018-11-03T01:28:05.060Z,53.66
2018-11-03T01:29:04.930Z,53.54
2018-11-03T01:30:05.015Z,53.58
2018-11-03T01:31:04.828Z,53.61
2018-11-03T01:32:05.129Z,53.58
2018-11-03T01:33:04.898Z,53.54
2018-11-03T01:34:05.456Z,53.6
2018-11-03T01:35:05.020Z,53.57
2018-11-03T01:36:05.005Z,53.57
2018-11-03T01:37:05.157Z,53.6
2018-11-03T01:38:04.913Z,53.6
2018-11-03T01:39:05.003Z,53.53
2018-11-03T01:40:04.828Z,53.54
2018-11-03T01:41:05.126Z,53.58
2018-11-03T01:42:05.036Z,53.55
2018-11-03T01:43:04.957Z,53.57
2018-11-03T01:44:05.042Z,53.59
2018-11-03T01:45:05.235Z,53.59
2018-11-03T01:46:07.333Z,53.58
2018-11-03T01:47:05.347Z,53.54
2018-11-03T01:48:05.337Z,53.57
2018-11-03T01:49:05.018Z,53.53
2018-11-03T01:50:05.274Z,53.5
2018-11-03T01:51:05.029Z,53.59
2018-11-03T01:52:05.095Z,53.56
2018-11-03T01:53:05.434Z,53.56
2018-11-03T01:54:04.781Z,53.55
2018-11-03T01:55:04.983Z,53.59
2018-11-03T01:56:08.018Z,53.57
2018-11-03T01:57:05.074Z,53.55
2018-11-03T01:58:05.287Z,53.61
2018-11-03T01:59:05.004Z,53.54
2018-11-03T02:00:04.934Z,53.53
2018-11-03T02:01:04.861Z,53.61
2018-11-03T02:02:05.084Z,53.57
2018-11-03T02:03:05.088Z,53.55
2018-11-03T02:04:05.384Z,53.52
2018-11-03T02:05:05.225Z,53.52
2018-11-03T02:06:07.213Z,53.55
2018-11-03T02:07:05.035Z,53.57
2018-11-03T02:08:05.390Z,53.53
2018-11-03T02:09:05.196Z,53.6
2018-11-03T02:10:05.460Z,53.57
2018-11-03T02:11:04.980Z,53.53
2018-11-03T02:12:05.877Z,53.58
2018-11-03T02:13:04.897Z,53.55
2018-11-03T02:14:04.892Z,53.57
2018-11-03T02:15:05.259Z,53.55
2018-11-03T02:16:05.580Z,53.56
2018-11-03T02:17:05.002Z,53.53
2018-11-03T02:18:04.970Z,53.49
2018-11-03T02:19:05.275Z,53.55
2018-11-03T02:20:05.227Z,53.52
2018-11-03T02:21:05.439Z,53.48
2018-11-03T02:22:05.308Z,53.56
2018-11-03T02:23:05.094Z,53.48
2018-11-03T02:24:05.062Z,53.58
2018-11-03T02:25:06.057Z,53.49
2018-11-03T02:26:05.389Z,53.46
2018-11-03T02:27:07.420Z,53.51
2018-11-03T02:28:04.889Z,53.59
2018-11-03T02:29:05.273Z,53.51
2018-11-03T02:30:05.835Z,53.49
2018-11-03T02:31:05.046Z,53.52
2018-11-03T02:32:05.704Z,53.53
2018-11-03T02:33:04.960Z,53.56
2018-11-03T02:34:05.956Z,53.49
2018-11-03T02:35:05.067Z,53.52
2018-11-03T02:36:05.195Z,53.54
2018-11-03T02:37:07.492Z,53.5
2018-11-03T02:38:05.488Z,53.51
2018-11-03T02:39:05.288Z,53.52
2018-11-03T02:40:05.397Z,53.51
2018-11-03T02:41:05.090Z,53.55
2018-11-03T02:42:05.150Z,53.57
2018-11-03T02:43:05.366Z,53.48
2018-11-03T02:44:04.895Z,53.57
2018-11-03T02:45:05.331Z,53.48
2018-11-03T02:46:05.181Z,53.51
2018-11-03T02:47:07.667Z,53.51
2018-11-03T02:48:05.179Z,53.5
2018-11-03T02:49:04.972Z,53.47
2018-11-03T02:50:05.546Z,53.45
2018-11-03T02:51:05.365Z,53.58
2018-11-03T02:52:05.052Z,53.44
2018-11-03T02:53:05.017Z,53.52
2018-11-03T02:54:05.039Z,53.43
2018-11-03T02:55:05.061Z,53.55
2018-11-03T02:56:05.168Z,53.46
2018-11-03T02:57:07.636Z,53.5
2018-11-03T02:58:05.246Z,53.47
2018-11-03T02:59:05.053Z,53.52
2018-11-03T03:00:05.018Z,53.43
2018-11-03T03:01:05.128Z,53.49
2018-11-03T03:02:05.133Z,53.51
2018-11-03T03:03:05.072Z,53.47
2018-11-03T03:04:05.230Z,53.47
2018-11-03T03:05:05.412Z,53.4
2018-11-03T03:06:05.018Z,53.46
2018-11-03T03:07:07.369Z,53.44
2018-11-03T03:08:04.855Z,53.49
2018-11-03T03:09:05.058Z,53.49
2018-11-03T03:10:05.127Z,53.51
2018-11-03T03:11:05.088Z,53.42
2018-11-03T03:12:05.215Z,53.44
2018-11-03T03:13:04.994Z,53.45
2018-11-03T03:14:05.246Z,53.45
2018-11-03T03:15:04.820Z,53.46
2018-11-03T03:16:05.041Z,53.45
2018-11-03T03:17:07.370Z,53.41
2018-11-03T03:18:05.070Z,53.46
2018-11-03T03:19:04.961Z,53.49
2018-11-03T03:20:05.137Z,53.46
2018-11-03T03:21:05.219Z,53.45
2018-11-03T03:22:04.812Z,53.42
2018-11-03T03:23:05.005Z,53.41
2018-11-03T03:24:04.930Z,53.4
2018-11-03T03:25:04.954Z,53.41
2018-11-03T03:26:05.523Z,53.44
2018-11-03T03:27:07.435Z,53.43
2018-11-03T03:28:04.953Z,53.4
2018-11-03T03:29:07.201Z,53.43
2018-11-03T03:30:05.151Z,53.36
2018-11-03T03:31:05.106Z,53.44
2018-11-03T03:32:05.140Z,53.41
2018-11-03T03:33:05.235Z,53.38
2018-11-03T03:34:05.067Z,53.37
2018-11-03T03:35:05.098Z,53.39
2018-11-03T03:36:05.177Z,53.43
2018-11-03T03:37:04.913Z,53.46
2018-11-03T03:38:05.379Z,53.36
2018-11-03T03:39:04.909Z,53.43
2018-11-03T03:40:05.279Z,53.4
2018-11-03T03:41:05.155Z,53.43
2018-11-03T03:42:04.928Z,53.39
2018-11-03T03:43:05.003Z,53.4
2018-11-03T03:44:05.439Z,53.41
2018-11-03T03:45:05.402Z,53.5
2018-11-03T03:46:05.804Z,53.45
2018-11-03T03:47:07.891Z,53.38
2018-11-03T03:48:05.353Z,53.43
2018-11-03T03:49:05.134Z,53.45
2018-11-03T03:50:05.043Z,53.39
2018-11-03T03:51:04.898Z,53.42
2018-11-03T03:52:05.439Z,53.45
2018-11-03T03:53:04.907Z,53.44
2018-11-03T03:54:04.898Z,53.43
2018-11-03T03:55:05.326Z,53.43
2018-11-03T03:56:05.066Z,53.43
2018-11-03T03:57:04.990Z,53.46
2018-11-03T03:58:05.031Z,53.44
2018-11-03T03:59:05.032Z,53.42
2018-11-03T04:00:05.380Z,53.48
2018-11-03T04:01:05.402Z,53.45
2018-11-03T04:02:05.003Z,53.42
2018-11-03T04:03:05.343Z,53.38
2018-11-03T04:04:05.095Z,53.37
2018-11-03T04:05:05.099Z,53.44
2018-11-03T04:06:05.577Z,53.42
2018-11-03T04:07:05.192Z,53.38
2018-11-03T04:08:05.053Z,53.45
2018-11-03T04:09:05.025Z,53.37
2018-11-03T04:10:05.419Z,53.35
2018-11-03T04:11:05.113Z,53.39
2018-11-03T04:12:04.924Z,53.37
2018-11-03T04:13:04.990Z,53.4
2018-11-03T04:14:04.737Z,53.41
2018-11-03T04:15:04.873Z,53.45
2018-11-03T04:16:06.591Z,53.33
2018-11-03T04:17:04.979Z,53.37
2018-11-03T04:18:05.007Z,53.38
2018-11-03T04:19:05.122Z,53.32
2018-11-03T04:20:05.057Z,53.34
2018-11-03T04:21:05.018Z,53.32
2018-11-03T04:22:04.882Z,53.44
2018-11-03T04:23:05.266Z,53.39
2018-11-03T04:24:05.063Z,53.41
2018-11-03T04:25:05.027Z,53.37
2018-11-03T04:26:07.556Z,53.38
2018-11-03T04:27:04.792Z,53.38
2018-11-03T04:28:05.470Z,53.37
2018-11-03T04:29:04.969Z,53.37
2018-11-03T04:30:05.183Z,53.3
2018-11-03T04:31:05.029Z,53.41
2018-11-03T04:32:05.024Z,53.33
2018-11-03T04:33:04.971Z,53.39
2018-11-03T04:34:04.965Z,53.36
2018-11-03T04:35:05.095Z,53.41
2018-11-03T04:36:04.832Z,53.4
2018-11-03T04:37:04.885Z,53.33
2018-11-03T04:38:05.105Z,53.3
2018-11-03T04:39:04.822Z,53.34
2018-11-03T04:40:04.864Z,53.33
2018-11-03T04:41:04.889Z,53.41
2018-11-03T04:42:04.848Z,53.33
2018-11-03T04:43:05.229Z,53.34
2018-11-03T04:44:05.013Z,53.37
2018-11-03T04:45:05.004Z,53.33
2018-11-03T04:46:04.765Z,53.31
2018-11-03T04:47:04.953Z,53.35
2018-11-03T04:48:04.811Z,53.3
2018-11-03T04:49:05.127Z,53.33
2018-11-03T04:50:04.836Z,53.32
2018-11-03T04:51:04.805Z,53.32
2018-11-03T04:52:05.012Z,53.33
2018-11-03T04:53:05.382Z,53.36
2018-11-03T04:54:05.092Z,53.4
2018-11-03T04:55:06.451Z,53.36
2018-11-03T04:56:05.236Z,53.36
2018-11-03T04:57:05.184Z,53.38
2018-11-03T04:58:04.920Z,53.38
2018-11-03T04:59:05.250Z,53.4
2018-11-03T05:00:05.103Z,53.43
2018-11-03T05:01:05.163Z,53.42
2018-11-03T05:02:04.824Z,53.46
2018-11-03T05:03:05.090Z,53.36
2018-11-03T05:04:05.262Z,53.51
2018-11-03T05:05:04.897Z,53.42
2018-11-03T05:06:05.420Z,53.49
2018-11-03T05:07:04.814Z,53.51
2018-11-03T05:08:05.117Z,53.58
2018-11-03T05:09:05.136Z,53.53
2018-11-03T05:10:05.622Z,53.56
2018-11-03T05:11:05.272Z,53.58
2018-11-03T05:12:04.836Z,53.62
2018-11-03T05:13:05.163Z,53.59
2018-11-03T05:14:04.831Z,53.53
2018-11-03T05:15:04.995Z,53.54
2018-11-03T05:16:04.957Z,53.53
2018-11-03T05:17:05.602Z,53.48
2018-11-03T05:18:04.650Z,53.45
2018-11-03T05:19:04.841Z,53.42
2018-11-03T05:20:05.034Z,53.4
2018-11-03T05:21:05.442Z,53.34
2018-11-03T05:22:05.015Z,53.37
2018-11-03T05:23:05.185Z,53.35
2018-11-03T05:24:04.812Z,53.3
2018-11-03T05:25:05.011Z,53.32
2018-11-03T05:26:05.019Z,53.33
2018-11-03T05:27:04.954Z,53.28
2018-11-03T05:28:04.906Z,53.3
2018-11-03T05:29:04.996Z,53.27
2018-11-03T05:30:04.859Z,53.27
2018-11-03T05:31:06.331Z,53.29
2018-11-03T05:32:05.014Z,53.27
2018-11-03T05:33:04.821Z,53.27
2018-11-03T05:34:04.972Z,53.29
2018-11-03T05:35:05.099Z,53.29
2018-11-03T05:36:07.140Z,53.29
2018-11-03T05:37:04.862Z,53.34
2018-11-03T05:38:05.029Z,53.33
2018-11-03T05:39:06.487Z,53.3
2018-11-03T05:40:05.102Z,53.32
2018-11-03T05:41:05.026Z,53.29
2018-11-03T05:42:05.240Z,53.36
2018-11-03T05:43:06.029Z,53.38
2018-11-03T05:44:05.115Z,53.33
2018-11-03T05:45:04.982Z,53.36
2018-11-03T05:46:07.520Z,53.37
2018-11-03T05:47:05.174Z,53.36
2018-11-03T05:48:05.179Z,53.34
2018-11-03T05:49:05.206Z,53.31
2018-11-03T05:50:04.866Z,53.36
2018-11-03T05:51:05.621Z,53.36
2018-11-03T05:52:04.868Z,53.31
2018-11-03T05:53:05.019Z,53.31
2018-11-03T05:54:05.437Z,53.4
2018-11-03T05:55:05.536Z,53.32
2018-11-03T05:56:07.287Z,53.32
2018-11-03T05:57:04.919Z,53.36
2018-11-03T05:58:05.877Z,53.37
2018-11-03T05:59:06.328Z,53.36
2018-11-03T06:00:04.964Z,53.42
2018-11-03T06:01:04.831Z,53.35
2018-11-03T06:02:04.933Z,53.36
2018-11-03T06:03:05.173Z,53.38
2018-11-03T06:04:04.940Z,53.4
2018-11-03T06:05:05.049Z,53.41
2018-11-03T06:06:06.471Z,53.32
2018-11-03T06:07:05.038Z,53.4
2018-11-03T06:08:04.892Z,53.39
2018-11-03T06:09:05.045Z,53.36
2018-11-03T06:10:04.957Z,53.37
2018-11-03T06:11:04.984Z,53.42
2018-11-03T06:12:04.839Z,53.33
2018-11-03T06:13:05.131Z,53.35
2018-11-03T06:14:05.138Z,53.39
2018-11-03T06:15:05.171Z,53.37
2018-11-03T06:16:05.714Z,53.37
2018-11-03T06:17:04.858Z,53.34
2018-11-03T06:18:05.083Z,53.34
2018-11-03T06:19:04.813Z,53.3
2018-11-03T06:20:04.899Z,53.37
2018-11-03T06:21:05.035Z,53.3
2018-11-03T06:22:04.872Z,53.3
2018-11-03T06:23:06.457Z,53.32
2018-11-03T06:24:04.733Z,53.33
2018-11-03T06:25:05.085Z,53.33
2018-11-03T06:26:05.682Z,53.3
2018-11-03T06:27:04.893Z,53.33
2018-11-03T06:28:06.676Z,53.3
2018-11-03T06:29:05.161Z,53.3
2018-11-03T06:30:05.423Z,53.27
2018-11-03T06:31:04.896Z,53.32
2018-11-03T06:32:04.921Z,53.29
2018-11-03T06:33:05.323Z,53.3
2018-11-03T06:34:05.099Z,53.21
2018-11-03T06:35:06.797Z,53.27
2018-11-03T06:36:04.785Z,53.3
2018-11-03T06:37:05.347Z,53.27
2018-11-03T06:38:04.877Z,53.26
2018-11-03T06:39:06.659Z,53.28
2018-11-03T06:40:05.634Z,53.27
2018-11-03T06:41:04.896Z,53.27
2018-11-03T06:42:04.880Z,53.24
2018-11-03T06:43:04.948Z,53.26
2018-11-03T06:44:04.802Z,53.24
2018-11-03T06:45:05.116Z,53.23
2018-11-03T06:46:04.891Z,53.24
2018-11-03T06:47:05.252Z,53.26
2018-11-03T06:48:04.892Z,53.18
2018-11-03T06:49:04.872Z,53.27
2018-11-03T06:50:05.110Z,53.26
2018-11-03T06:51:05.232Z,53.18
2018-11-03T06:52:06.516Z,53.21
2018-11-03T06:53:05.319Z,53.19
2018-11-03T06:54:04.986Z,53.22
2018-11-03T06:55:05.114Z,53.24
2018-11-03T06:56:04.829Z,53.17
2018-11-03T06:57:05.215Z,53.15
2018-11-03T06:58:04.803Z,53.15
2018-11-03T06:59:05.183Z,53.21
2018-11-03T07:00:05.122Z,53.14
2018-11-03T07:01:05.155Z,53.17
2018-11-03T07:02:05.091Z,53.17
2018-11-03T07:03:04.831Z,53.14
2018-11-03T07:04:05.080Z,53.15
2018-11-03T07:05:06.062Z,53.13
2018-11-03T07:06:05.189Z,53.06
2018-11-03T07:07:07.078Z,53.15
2018-11-03T07:08:05.296Z,53.11
2018-11-03T07:09:04.988Z,53.11
2018-11-03T07:10:05.065Z,53.12
2018-11-03T07:11:04.852Z,53.1
2018-11-03T07:12:06.219Z,53.13
2018-11-03T07:13:06.436Z,53.09
2018-11-03T07:14:04.925Z,53.12
2018-11-03T07:15:05.354Z,53.14
2018-11-03T07:16:04.739Z,53.13
2018-11-03T07:17:08.193Z,53.09
2018-11-03T07:18:04.855Z,53.11
2018-11-03T07:19:04.733Z,53.1
2018-11-03T07:20:05.181Z,53.07
2018-11-03T07:21:04.779Z,53.04
2018-11-03T07:22:05.211Z,53.07
2018-11-03T07:23:05.128Z,53.09
2018-11-03T07:24:05.102Z,53
2018-11-03T07:25:05.332Z,53.01
2018-11-03T07:26:07.005Z,53.04
2018-11-03T07:27:04.785Z,52.96
2018-11-03T07:28:05.071Z,53
2018-11-03T07:29:04.722Z,52.99
2018-11-03T07:30:04.959Z,53.03
2018-11-03T07:31:05.078Z,53
2018-11-03T07:32:04.945Z,52.99
2018-11-03T07:33:05.123Z,53
2018-11-03T07:34:05.017Z,52.99
2018-11-03T07:35:05.385Z,52.94
2018-11-03T07:36:07.690Z,52.99
2018-11-03T07:37:05.482Z,52.97
2018-11-03T07:38:04.797Z,52.94
2018-11-03T07:39:04.865Z,52.99
2018-11-03T07:40:04.906Z,52.94
2018-11-03T07:41:06.996Z,52.96
2018-11-03T07:42:04.758Z,52.96
2018-11-03T07:43:04.892Z,52.93
2018-11-03T07:44:04.960Z,52.84
2018-11-03T07:45:05.963Z,52.96
2018-11-03T07:46:04.852Z,52.86
2018-11-03T07:47:05.024Z,52.94
2018-11-03T07:48:06.524Z,52.91
2018-11-03T07:49:08.010Z,52.81
2018-11-03T07:50:04.924Z,52.88
2018-11-03T07:51:04.999Z,52.78
2018-11-03T07:52:04.886Z,52.85
2018-11-03T07:53:05.087Z,52.84
2018-11-03T07:54:05.523Z,52.91
2018-11-03T07:55:07.115Z,52.88
2018-11-03T07:56:04.895Z,52.9
2018-11-03T07:57:04.846Z,52.85
2018-11-03T07:58:04.884Z,52.81
2018-11-03T07:59:05.121Z,52.8
2018-11-03T08:00:04.985Z,52.81
2018-11-03T08:01:04.709Z,52.81
2018-11-03T08:02:04.963Z,52.85
2018-11-03T08:03:04.902Z,52.88
2018-11-03T08:04:06.380Z,52.82
2018-11-03T08:05:05.314Z,52.82
2018-11-03T08:06:04.832Z,52.82
2018-11-03T08:07:04.957Z,52.79
2018-11-03T08:08:04.752Z,52.75
2018-11-03T08:09:06.943Z,52.78
2018-11-03T08:10:05.001Z,52.76
2018-11-03T08:11:05.483Z,52.81
2018-11-03T08:12:04.764Z,52.71
2018-11-03T08:13:05.007Z,52.73
2018-11-03T08:14:06.173Z,52.7
2018-11-03T08:15:04.944Z,52.76
2018-11-03T08:16:05.295Z,52.76
2018-11-03T08:17:05.437Z,52.68
2018-11-03T08:18:05.267Z,52.73
2018-11-03T08:19:04.977Z,52.67
2018-11-03T08:20:04.965Z,52.75
2018-11-03T08:21:05.247Z,52.64
2018-11-03T08:22:04.953Z,52.65
2018-11-03T08:23:04.831Z,52.68
2018-11-03T08:24:07.660Z,52.65
2018-11-03T08:25:05.108Z,52.69
2018-11-03T08:26:05.046Z,52.64
2018-11-03T08:27:05.068Z,52.59
2018-11-03T08:28:05.013Z,52.65
2018-11-03T08:29:05.310Z,52.67
2018-11-03T08:30:05.289Z,53.19
2018-11-03T08:31:05.095Z,53.31
2018-11-03T08:32:04.672Z,53.24
2018-11-03T08:33:05.354Z,53.35
2018-11-03T08:34:04.969Z,53.54
2018-11-03T08:35:04.860Z,52.87
2018-11-03T08:36:04.779Z,52.77
2018-11-03T08:37:04.728Z,52.81
2018-11-03T08:38:05.195Z,52.9
2018-11-03T08:39:04.828Z,52.89
2018-11-03T08:40:05.283Z,52.89
2018-11-03T08:41:04.884Z,52.88
2018-11-03T08:42:04.684Z,52.91
2018-11-03T08:43:04.897Z,52.86
2018-11-03T08:44:05.007Z,52.84
2018-11-03T08:45:07.263Z,52.8
2018-11-03T08:46:04.684Z,52.86
2018-11-03T08:47:04.833Z,52.84
2018-11-03T08:48:06.685Z,52.79
2018-11-03T08:49:05.162Z,52.82
2018-11-03T08:50:04.968Z,52.81
2018-11-03T08:51:04.911Z,52.81
2018-11-03T08:52:04.962Z,52.74
2018-11-03T08:53:05.229Z,52.76
2018-11-03T08:54:04.746Z,52.75
2018-11-03T08:55:07.485Z,52.76
2018-11-03T08:56:04.761Z,52.72
2018-11-03T08:57:04.946Z,52.72
2018-11-03T08:58:04.729Z,52.66
2018-11-03T08:59:05.529Z,52.63
2018-11-03T09:00:06.675Z,52.65
2018-11-03T09:01:04.948Z,52.72
2018-11-03T09:02:04.848Z,52.7
2018-11-03T09:03:04.935Z,52.67
2018-11-03T09:04:04.923Z,52.68
2018-11-03T09:05:05.845Z,52.64
2018-11-03T09:06:05.500Z,52.64
2018-11-03T09:07:07.336Z,52.66
2018-11-03T09:08:05.333Z,52.58
2018-11-03T09:09:05.429Z,52.52
2018-11-03T09:10:05.000Z,52.54
2018-11-03T09:11:04.870Z,52.58
2018-11-03T09:12:04.832Z,52.55
2018-11-03T09:13:04.869Z,52.58
2018-11-03T09:14:04.823Z,52.56
2018-11-03T09:15:06.368Z,52.54
2018-11-03T09:16:04.864Z,52.52
2018-11-03T09:17:04.919Z,52.56
2018-11-03T09:18:04.979Z,52.53
2018-11-03T09:19:04.812Z,52.56
2018-11-03T09:20:04.781Z,52.5
2018-11-03T09:21:04.846Z,52.47
2018-11-03T09:22:04.895Z,52.5
2018-11-03T09:23:04.862Z,52.5
2018-11-03T09:24:04.948Z,52.5
2018-11-03T09:25:04.888Z,52.55
2018-11-03T09:26:07.253Z,52.59
2018-11-03T09:27:05.269Z,52.74
2018-11-03T09:28:04.842Z,52.86
2018-11-03T09:29:04.903Z,52.82
2018-11-03T09:30:04.817Z,52.96
2018-11-03T09:31:04.891Z,53.05
2018-11-03T09:32:06.841Z,52.92
2018-11-03T09:33:04.682Z,52.8
2018-11-03T09:34:04.961Z,53.24
2018-11-03T09:35:04.758Z,53.34
2018-11-03T09:36:07.836Z,53.42
2018-11-03T09:37:04.783Z,53.45
2018-11-03T09:38:04.759Z,53.49
2018-11-03T09:39:06.151Z,53.59
2018-11-03T09:40:05.077Z,53.43
2018-11-03T09:41:04.893Z,53.58
2018-11-03T09:42:04.919Z,53.45
2018-11-03T09:43:06.416Z,53.53
2018-11-03T09:44:04.578Z,53.59
2018-11-03T09:45:06.539Z,53.54
2018-11-03T09:46:07.089Z,53.48
2018-11-03T09:47:04.771Z,53.61
2018-11-03T09:48:05.018Z,53.87
2018-11-03T09:49:05.560Z,54.13
2018-11-03T09:50:04.871Z,53.42
2018-11-03T09:51:06.169Z,53.46
2018-11-03T09:52:04.962Z,53.34
2018-11-03T09:53:04.894Z,53.23
2018-11-03T09:54:04.614Z,53.34
2018-11-03T09:55:05.073Z,53.31
2018-11-03T09:56:06.777Z,53.3
2018-11-03T09:57:04.815Z,53.34
2018-11-03T09:58:04.795Z,53.34
2018-11-03T09:59:04.828Z,53.38
2018-11-03T10:00:05.712Z,53.26
2018-11-03T10:01:04.923Z,53.21
2018-11-03T10:02:05.108Z,53.44
2018-11-03T10:03:05.547Z,53.41
2018-11-03T10:04:05.133Z,53.24
2018-11-03T10:05:05.267Z,53.28
2018-11-03T10:06:06.313Z,53.4
2018-11-03T10:07:04.890Z,53.26
2018-11-03T10:08:04.517Z,53.16
2018-11-03T10:09:04.905Z,52.68
2018-11-03T10:10:04.809Z,52.83
2018-11-03T10:11:04.888Z,52.84
2018-11-03T10:12:04.802Z,52.83
2018-11-03T10:13:04.901Z,53.02
2018-11-03T10:14:05.568Z,53.24
2018-11-03T10:15:04.835Z,53.15
2018-11-03T10:16:07.243Z,53.29
2018-11-03T10:17:05.743Z,53.41
2018-11-03T10:18:04.762Z,53.26
2018-11-03T10:19:05.064Z,53.21
2018-11-03T10:20:04.614Z,53.34
2018-11-03T10:21:04.926Z,53.31
2018-11-03T10:22:05.654Z,53.23
2018-11-03T10:23:07.032Z,53.82
2018-11-03T10:24:04.992Z,53.26
2018-11-03T10:25:04.946Z,53.2
2018-11-03T10:26:05.167Z,53.07
2018-11-03T10:27:04.939Z,53.19
2018-11-03T10:28:04.694Z,53.2
2018-11-03T10:29:05.032Z,53.2
2018-11-03T10:30:04.771Z,53.51
2018-11-03T10:31:05.332Z,53.46
2018-11-03T10:32:05.064Z,53.41
2018-11-03T10:33:05.455Z,53.39
2018-11-03T10:34:05.263Z,53.55
2018-11-03T10:35:04.712Z,53.7
2018-11-03T10:36:05.155Z,53.77
2018-11-03T10:37:04.734Z,53.71
2018-11-03T10:38:04.942Z,53.8
2018-11-03T10:39:05.078Z,54
2018-11-03T10:40:05.080Z,53.89
2018-11-03T10:41:04.635Z,53.83
2018-11-03T10:42:04.699Z,53.75
2018-11-03T10:43:04.824Z,54.13
2018-11-03T10:44:04.645Z,53.92
2018-11-03T10:45:04.755Z,54.03
2018-11-03T10:46:05.683Z,53.48
2018-11-03T10:47:07.249Z,53.69
2018-11-03T10:48:04.808Z,54.11
2018-11-03T10:49:04.640Z,54.18
2018-11-03T10:50:04.739Z,54.05
2018-11-03T10:51:04.933Z,52.8
2018-11-03T10:52:04.830Z,52.62
2018-11-03T10:53:04.884Z,53.36
2018-11-03T10:54:04.946Z,53.23
2018-11-03T10:55:04.811Z,53.42
2018-11-03T10:56:04.634Z,53.37
2018-11-03T10:57:07.295Z,53.36
2018-11-03T10:58:04.948Z,53.41
2018-11-03T10:59:04.757Z,53.23
2018-11-03T11:00:04.842Z,53.16
2018-11-03T11:01:04.697Z,53.02
2018-11-03T11:02:04.748Z,53.19
2018-11-03T11:03:04.992Z,53.25
2018-11-03T11:04:04.869Z,53.21
2018-11-03T11:05:04.828Z,53.18
2018-11-03T11:06:04.644Z,53.19
2018-11-03T11:07:07.267Z,53.19
2018-11-03T11:08:04.673Z,53.16
2018-11-03T11:09:05.236Z,53.11
2018-11-03T11:10:04.724Z,53.15
2018-11-03T11:11:05.296Z,53.11
2018-11-03T11:12:05.427Z,53.1
2018-11-03T11:13:05.147Z,53.08
2018-11-03T11:14:06.062Z,53.01
2018-11-03T11:15:04.701Z,53.05
2018-11-03T11:16:05.487Z,53.07
2018-11-03T11:17:07.194Z,53.04
2018-11-03T11:18:04.691Z,53.01
2018-11-03T11:19:04.861Z,53.1
2018-11-03T11:20:05.293Z,53.01
2018-11-03T11:21:04.907Z,53.01
2018-11-03T11:22:05.290Z,52.98
2018-11-03T11:23:04.748Z,52.96
2018-11-03T11:24:06.812Z,52.89
2018-11-03T11:25:07.548Z,52.93
2018-11-03T11:26:05.003Z,52.88
2018-11-03T11:27:05.961Z,52.89
2018-11-03T11:28:04.996Z,52.94
2018-11-03T11:29:04.851Z,52.92
2018-11-03T11:30:05.076Z,52.99
2018-11-03T11:31:05.163Z,52.93
2018-11-03T11:32:05.989Z,52.91
2018-11-03T11:33:05.630Z,52.97
2018-11-03T11:34:05.287Z,53.09
2018-11-03T11:35:04.818Z,52.68
2018-11-03T11:36:04.929Z,52.84
2018-11-03T11:37:05.075Z,52.73
2018-11-03T11:38:04.794Z,52.83
2018-11-03T11:39:05.126Z,52.97
2018-11-03T11:40:04.944Z,53.01
2018-11-03T11:41:05.118Z,53.07
2018-11-03T11:42:04.990Z,53.2
2018-11-03T11:43:06.868Z,53.25
2018-11-03T11:44:04.852Z,53.29
2018-11-03T11:45:04.752Z,53.17
2018-11-03T11:46:04.854Z,53.27
2018-11-03T11:47:04.855Z,53.17
2018-11-03T11:48:04.972Z,53.25
2018-11-03T11:49:04.786Z,53.13
2018-11-03T11:50:05.154Z,53.13
2018-11-03T11:51:04.598Z,53.13
2018-11-03T11:52:04.658Z,53.19
2018-11-03T11:53:04.666Z,53.29
2018-11-03T11:54:04.612Z,53.23
2018-11-03T11:55:06.973Z,53.34
2018-11-03T11:56:05.132Z,53.21
2018-11-03T11:57:05.319Z,53.32
2018-11-03T11:58:05.605Z,53.27
2018-11-03T11:59:05.119Z,53.5
2018-11-03T12:00:04.751Z,53.53
2018-11-03T12:01:05.103Z,53.52
2018-11-03T12:02:05.830Z,53.54
2018-11-03T12:03:04.937Z,53.43
2018-11-03T12:04:04.918Z,53.26
2018-11-03T12:05:05.509Z,53.48
2018-11-03T12:06:05.011Z,53.56
2018-11-03T12:07:07.849Z,53.73
2018-11-03T12:08:04.605Z,53.54
2018-11-03T12:09:04.961Z,53.44
2018-11-03T12:10:06.584Z,53.5
2018-11-03T12:11:04.810Z,53.49
2018-11-03T12:12:04.983Z,53.53
2018-11-03T12:13:05.213Z,53.37
2018-11-03T12:14:04.619Z,53.16
2018-11-03T12:15:05.094Z,53.31
2018-11-03T12:16:06.356Z,52.64
2018-11-03T12:17:07.162Z,52.65
2018-11-03T12:18:04.791Z,52.47
2018-11-03T12:19:04.818Z,52.61
2018-11-03T12:20:04.807Z,52.47
2018-11-03T12:21:04.604Z,52.4
2018-11-03T12:22:04.696Z,52.34
2018-11-03T12:23:05.975Z,52.28
2018-11-03T12:24:04.997Z,52.37
2018-11-03T12:25:04.869Z,52.41
2018-11-03T12:26:04.855Z,52.45
2018-11-03T12:27:07.135Z,52.46
2018-11-03T12:28:04.903Z,52.54
2018-11-03T12:29:05.130Z,52.43
2018-11-03T12:30:04.841Z,52.45
2018-11-03T12:31:04.805Z,52.39
2018-11-03T12:32:04.868Z,52.29
2018-11-03T12:33:06.027Z,52.35
2018-11-03T12:34:04.751Z,52.29
2018-11-03T12:35:04.792Z,52.26
2018-11-03T12:36:04.805Z,52.19
2018-11-03T12:37:08.026Z,52.28
2018-11-03T12:38:05.065Z,52.17
2018-11-03T12:39:04.793Z,52.16
2018-11-03T12:40:04.798Z,52.16
2018-11-03T12:41:05.193Z,52.15
2018-11-03T12:42:05.106Z,52.08
2018-11-03T12:43:04.562Z,52.09
2018-11-03T12:44:04.829Z,52.11
2018-11-03T12:45:04.783Z,51.94
2018-11-03T12:46:05.413Z,52.04
2018-11-03T12:47:07.072Z,52.03
2018-11-03T12:48:05.588Z,51.98
2018-11-03T12:49:04.881Z,52.02
2018-11-03T12:50:04.931Z,52.13
2018-11-03T12:51:05.368Z,52.15
2018-11-03T12:52:04.953Z,52.14
2018-11-03T12:53:05.138Z,52.03
2018-11-03T12:54:05.061Z,51.94
2018-11-03T12:55:04.750Z,51.93